sensor_id;sensor_type;location;lat;lon;timestamp;temperature;humidity
42833;DHT22;64089;51.478;5.692;2023-05-18T00:00:05;8.00;99.90
42833;DHT22;64089;51.478;5.692;2023-05-18T00:02:35;7.90;99.90
42833;DHT22;64089;51.478;5.692;2023-05-18T00:05:01;7.90;99.90
42833;DHT22;64089;51.478;5.692;2023-05-18T00:07:27;7.80;99.90
42833;DHT22;64089;51.478;5.692;2023-05-18T00:09:58;7.80;99.90
42833;DHT22;64089;51.478;5.692;2023-05-18T00:12:24;7.70;99.90
42833;DHT22;64089;51.478;5.692;2023-05-18T00:14:49;7.70;99.90
42833;DHT22;64089;51.478;5.692;2023-05-18T00:17:15;7.60;99.90
42833;DHT22;64089;51.478;5.692;2023-05-18T00:19:41;7.60;99.90
42833;DHT22;64089;51.478;5.692;2023-05-18T00:22:07;7.50;99.90
42833;DHT22;64089;51.478;5.692;2023-05-18T00:24:32;7.50;99.90
42833;DHT22;64089;51.478;5.692;2023-05-18T00:26:58;7.40;99.90
42833;DHT22;64089;51.478;5.692;2023-05-18T00:29:24;7.40;99.90
42833;DHT22;64089;51.478;5.692;2023-05-18T00:31:49;7.30;99.90
42833;DHT22;64089;51.478;5.692;2023-05-18T00:34:15;7.20;99.90
42833;DHT22;64089;51.478;5.692;2023-05-18T00:36:41;7.30;99.90
42833;DHT22;64089;51.478;5.692;2023-05-18T00:39:07;7.30;99.90
42833;DHT22;64089;51.478;5.692;2023-05-18T00:41:34;7.30;99.90
42833;DHT22;64089;51.478;5.692;2023-05-18T00:43:59;7.30;99.90
42833;DHT22;64089;51.478;5.692;2023-05-18T00:46:26;7.40;99.90
42833;DHT22;64089;51.478;5.692;2023-05-18T00:48:53;7.30;99.90
42833;DHT22;64089;51.478;5.692;2023-05-18T00:51:22;7.40;99.90
42833;DHT22;64089;51.478;5.692;2023-05-18T00:53:48;7.40;99.90
42833;DHT22;64089;51.478;5.692;2023-05-18T00:56:15;7.40;99.90
42833;DHT22;64089;51.478;5.692;2023-05-18T00:58:41;7.40;99.90
42833;DHT22;64089;51.478;5.692;2023-05-18T01:01:08;7.30;99.90
42833;DHT22;64089;51.478;5.692;2023-05-18T01:03:34;7.20;99.90
42833;DHT22;64089;51.478;5.692;2023-05-18T01:06:06;7.20;99.90
42833;DHT22;64089;51.478;5.692;2023-05-18T01:08:33;7.30;99.90
42833;DHT22;64089;51.478;5.692;2023-05-18T01:16:09;7.20;99.90
42833;DHT22;64089;51.478;5.692;2023-05-18T01:18:45;7.10;99.90
42833;DHT22;64089;51.478;5.692;2023-05-18T01:21:56;7.10;99.90
42833;DHT22;64089;51.478;5.692;2023-05-18T01:27:00;6.90;99.90
42833;DHT22;64089;51.478;5.692;2023-05-18T01:29:28;6.80;99.90
42833;DHT22;64089;51.478;5.692;2023-05-18T01:31:57;6.80;99.90
42833;DHT22;64089;51.478;5.692;2023-05-18T01:34:23;6.70;99.90
42833;DHT22;64089;51.478;5.692;2023-05-18T01:36:48;6.70;99.90
42833;DHT22;64089;51.478;5.692;2023-05-18T01:39:14;6.60;99.90
42833;DHT22;64089;51.478;5.692;2023-05-18T01:41:50;6.50;99.90
42833;DHT22;64089;51.478;5.692;2023-05-18T01:44:22;6.50;99.90
42833;DHT22;64089;51.478;5.692;2023-05-18T01:47:09;6.50;99.90
42833;DHT22;64089;51.478;5.692;2023-05-18T01:52:41;6.40;99.90
42833;DHT22;64089;51.478;5.692;2023-05-18T01:55:09;6.40;99.90
42833;DHT22;64089;51.478;5.692;2023-05-18T01:57:37;6.30;99.90
42833;DHT22;64089;51.478;5.692;2023-05-18T02:00:04;6.30;99.90
42833;DHT22;64089;51.478;5.692;2023-05-18T02:02:34;6.20;99.90
42833;DHT22;64089;51.478;5.692;2023-05-18T02:05:00;6.30;99.90
42833;DHT22;64089;51.478;5.692;2023-05-18T02:07:26;6.40;99.90
42833;DHT22;64089;51.478;5.692;2023-05-18T02:09:52;6.40;99.90
42833;DHT22;64089;51.478;5.692;2023-05-18T02:12:18;6.30;99.90
42833;DHT22;64089;51.478;5.692;2023-05-18T02:14:43;6.40;99.90
42833;DHT22;64089;51.478;5.692;2023-05-18T02:17:09;6.40;99.90
42833;DHT22;64089;51.478;5.692;2023-05-18T02:19:35;6.50;99.90
42833;DHT22;64089;51.478;5.692;2023-05-18T02:22:05;6.50;99.90
42833;DHT22;64089;51.478;5.692;2023-05-18T02:24:31;6.50;99.90
42833;DHT22;64089;51.478;5.692;2023-05-18T02:26:57;6.60;99.90
42833;DHT22;64089;51.478;5.692;2023-05-18T02:29:23;6.50;99.90
42833;DHT22;64089;51.478;5.692;2023-05-18T02:31:49;6.60;99.90
42833;DHT22;64089;51.478;5.692;2023-05-18T02:34:14;6.50;99.90
42833;DHT22;64089;51.478;5.692;2023-05-18T02:36:41;6.60;99.90
42833;DHT22;64089;51.478;5.692;2023-05-18T02:39:08;6.50;99.90
42833;DHT22;64089;51.478;5.692;2023-05-18T02:41:35;6.50;99.90
42833;DHT22;64089;51.478;5.692;2023-05-18T02:44:04;6.50;99.90
42833;DHT22;64089;51.478;5.692;2023-05-18T02:46:31;6.40;99.90
42833;DHT22;64089;51.478;5.692;2023-05-18T02:48:57;6.50;99.90
42833;DHT22;64089;51.478;5.692;2023-05-18T02:51:23;6.50;99.90
42833;DHT22;64089;51.478;5.692;2023-05-18T02:53:49;6.50;99.90
42833;DHT22;64089;51.478;5.692;2023-05-18T02:56:16;6.60;99.90
42833;DHT22;64089;51.478;5.692;2023-05-18T02:58:42;6.60;99.90
42833;DHT22;64089;51.478;5.692;2023-05-18T03:01:08;6.50;99.90
42833;DHT22;64089;51.478;5.692;2023-05-18T03:03:37;6.60;99.90
42833;DHT22;64089;51.478;5.692;2023-05-18T03:06:03;6.60;99.90
42833;DHT22;64089;51.478;5.692;2023-05-18T03:08:30;6.60;99.90
42833;DHT22;64089;51.478;5.692;2023-05-18T03:10:57;6.60;99.90
42833;DHT22;64089;51.478;5.692;2023-05-18T03:13:23;6.60;99.90
42833;DHT22;64089;51.478;5.692;2023-05-18T03:15:48;6.60;99.90
42833;DHT22;64089;51.478;5.692;2023-05-18T03:18:15;6.60;99.90
42833;DHT22;64089;51.478;5.692;2023-05-18T03:20:41;6.50;99.90
42833;DHT22;64089;51.478;5.692;2023-05-18T03:23:08;6.50;99.90
42833;DHT22;64089;51.478;5.692;2023-05-18T03:25:34;6.50;99.90
42833;DHT22;64089;51.478;5.692;2023-05-18T03:28:04;6.50;99.90
42833;DHT22;64089;51.478;5.692;2023-05-18T03:30:32;6.50;99.90
42833;DHT22;64089;51.478;5.692;2023-05-18T03:32:59;6.40;99.90
42833;DHT22;64089;51.478;5.692;2023-05-18T03:35:26;6.40;99.90
42833;DHT22;64089;51.478;5.692;2023-05-18T03:37:51;6.40;99.90
42833;DHT22;64089;51.478;5.692;2023-05-18T03:40:18;6.30;99.90
42833;DHT22;64089;51.478;5.692;2023-05-18T03:42:44;6.40;99.90
42833;DHT22;64089;51.478;5.692;2023-05-18T03:45:10;6.40;99.90
42833;DHT22;64089;51.478;5.692;2023-05-18T03:47:37;6.50;99.90
42833;DHT22;64089;51.478;5.692;2023-05-18T03:50:03;6.50;99.90
42833;DHT22;64089;51.478;5.692;2023-05-18T03:52:33;6.60;99.90
42833;DHT22;64089;51.478;5.692;2023-05-18T03:55:00;6.60;99.90
42833;DHT22;64089;51.478;5.692;2023-05-18T03:57:27;6.60;99.90
42833;DHT22;64089;51.478;5.692;2023-05-18T03:59:53;6.70;99.90
42833;DHT22;64089;51.478;5.692;2023-05-18T04:02:18;6.70;99.90
42833;DHT22;64089;51.478;5.692;2023-05-18T04:04:44;6.80;99.90
42833;DHT22;64089;51.478;5.692;2023-05-18T04:07:12;6.80;99.90
42833;DHT22;64089;51.478;5.692;2023-05-18T04:09:42;6.80;99.90
42833;DHT22;64089;51.478;5.692;2023-05-18T04:12:08;6.80;99.90
42833;DHT22;64089;51.478;5.692;2023-05-18T04:14:34;6.80;99.90
42833;DHT22;64089;51.478;5.692;2023-05-18T04:17:00;6.90;99.90
42833;DHT22;64089;51.478;5.692;2023-05-18T04:19:34;7.00;99.90
42833;DHT22;64089;51.478;5.692;2023-05-18T04:22:01;7.00;99.90
42833;DHT22;64089;51.478;5.692;2023-05-18T04:24:30;7.10;99.90
42833;DHT22;64089;51.478;5.692;2023-05-18T04:26:57;7.20;99.90
42833;DHT22;64089;51.478;5.692;2023-05-18T04:29:24;7.10;99.90
42833;DHT22;64089;51.478;5.692;2023-05-18T04:31:49;7.10;99.90
42833;DHT22;64089;51.478;5.692;2023-05-18T04:34:16;7.10;99.90
42833;DHT22;64089;51.478;5.692;2023-05-18T04:36:44;7.10;99.90
42833;DHT22;64089;51.478;5.692;2023-05-18T04:39:10;7.20;99.90
42833;DHT22;64089;51.478;5.692;2023-05-18T04:41:36;7.30;99.90
42833;DHT22;64089;51.478;5.692;2023-05-18T04:44:02;7.30;99.90
42833;DHT22;64089;51.478;5.692;2023-05-18T04:46:28;7.30;99.90
42833;DHT22;64089;51.478;5.692;2023-05-18T04:48:54;7.30;99.90
42833;DHT22;64089;51.478;5.692;2023-05-18T04:51:23;7.30;99.90
42833;DHT22;64089;51.478;5.692;2023-05-18T04:53:51;7.30;99.90
42833;DHT22;64089;51.478;5.692;2023-05-18T04:56:18;7.40;99.90
42833;DHT22;64089;51.478;5.692;2023-05-18T04:58:45;7.40;99.90
42833;DHT22;64089;51.478;5.692;2023-05-18T05:01:12;7.40;99.90
42833;DHT22;64089;51.478;5.692;2023-05-18T05:03:40;7.40;99.90
42833;DHT22;64089;51.478;5.692;2023-05-18T05:06:06;7.50;99.90
42833;DHT22;64089;51.478;5.692;2023-05-18T05:08:32;7.50;99.90
42833;DHT22;64089;51.478;5.692;2023-05-18T05:10:57;7.50;99.90
42833;DHT22;64089;51.478;5.692;2023-05-18T05:13:23;7.50;99.90
42833;DHT22;64089;51.478;5.692;2023-05-18T05:15:48;7.50;99.90
42833;DHT22;64089;51.478;5.692;2023-05-18T05:18:14;7.60;99.90
42833;DHT22;64089;51.478;5.692;2023-05-18T05:20:39;7.60;99.90
42833;DHT22;64089;51.478;5.692;2023-05-18T05:23:05;7.60;99.90
42833;DHT22;64089;51.478;5.692;2023-05-18T05:25:31;7.60;99.90
42833;DHT22;64089;51.478;5.692;2023-05-18T05:27:56;7.60;99.90
42833;DHT22;64089;51.478;5.692;2023-05-18T05:30:22;7.60;99.90
42833;DHT22;64089;51.478;5.692;2023-05-18T05:32:48;7.70;99.90
42833;DHT22;64089;51.478;5.692;2023-05-18T05:35:13;7.70;99.90
42833;DHT22;64089;51.478;5.692;2023-05-18T05:37:39;7.70;99.90
42833;DHT22;64089;51.478;5.692;2023-05-18T05:40:05;7.70;99.90
42833;DHT22;64089;51.478;5.692;2023-05-18T05:42:31;7.80;99.90
42833;DHT22;64089;51.478;5.692;2023-05-18T05:44:57;7.80;99.90
42833;DHT22;64089;51.478;5.692;2023-05-18T05:47:22;7.90;99.90
42833;DHT22;64089;51.478;5.692;2023-05-18T05:49:48;7.90;99.90
42833;DHT22;64089;51.478;5.692;2023-05-18T05:52:13;8.00;99.90
42833;DHT22;64089;51.478;5.692;2023-05-18T05:54:40;8.10;99.90
42833;DHT22;64089;51.478;5.692;2023-05-18T05:57:06;8.30;99.90
42833;DHT22;64089;51.478;5.692;2023-05-18T05:59:31;8.20;99.90
42833;DHT22;64089;51.478;5.692;2023-05-18T06:01:57;8.20;99.90
42833;DHT22;64089;51.478;5.692;2023-05-18T06:04:22;8.30;99.90
42833;DHT22;64089;51.478;5.692;2023-05-18T06:06:48;8.40;99.90
42833;DHT22;64089;51.478;5.692;2023-05-18T06:09:14;8.40;99.90
42833;DHT22;64089;51.478;5.692;2023-05-18T06:11:40;8.50;99.90
42833;DHT22;64089;51.478;5.692;2023-05-18T06:14:06;8.40;99.90
42833;DHT22;64089;51.478;5.692;2023-05-18T06:16:32;8.40;99.90
42833;DHT22;64089;51.478;5.692;2023-05-18T06:18:57;8.50;99.90
42833;DHT22;64089;51.478;5.692;2023-05-18T06:21:23;8.50;99.90
42833;DHT22;64089;51.478;5.692;2023-05-18T06:23:49;8.60;99.90
42833;DHT22;64089;51.478;5.692;2023-05-18T06:26:14;8.60;99.90
42833;DHT22;64089;51.478;5.692;2023-05-18T06:28:41;8.70;99.90
42833;DHT22;64089;51.478;5.692;2023-05-18T06:31:07;8.80;99.90
42833;DHT22;64089;51.478;5.692;2023-05-18T06:33:33;8.90;99.90
42833;DHT22;64089;51.478;5.692;2023-05-18T06:35:58;9.00;99.90
42833;DHT22;64089;51.478;5.692;2023-05-18T06:38:24;9.00;99.90
42833;DHT22;64089;51.478;5.692;2023-05-18T06:40:50;9.00;99.90
42833;DHT22;64089;51.478;5.692;2023-05-18T06:43:18;9.10;99.90
42833;DHT22;64089;51.478;5.692;2023-05-18T06:45:45;9.20;99.90
42833;DHT22;64089;51.478;5.692;2023-05-18T06:48:11;9.30;99.90
42833;DHT22;64089;51.478;5.692;2023-05-18T06:50:36;9.40;99.90
42833;DHT22;64089;51.478;5.692;2023-05-18T06:53:02;9.60;99.90
42833;DHT22;64089;51.478;5.692;2023-05-18T06:55:28;9.70;99.90
42833;DHT22;64089;51.478;5.692;2023-05-18T06:57:54;9.80;99.90
42833;DHT22;64089;51.478;5.692;2023-05-18T07:00:23;9.80;99.90
42833;DHT22;64089;51.478;5.692;2023-05-18T07:02:49;10.00;99.90
42833;DHT22;64089;51.478;5.692;2023-05-18T07:05:14;10.00;99.90
42833;DHT22;64089;51.478;5.692;2023-05-18T07:07:41;10.00;99.90
42833;DHT22;64089;51.478;5.692;2023-05-18T07:10:07;10.00;99.90
42833;DHT22;64089;51.478;5.692;2023-05-18T07:12:32;10.00;99.90
42833;DHT22;64089;51.478;5.692;2023-05-18T07:14:58;10.10;99.90
42833;DHT22;64089;51.478;5.692;2023-05-18T07:17:24;10.30;99.90
42833;DHT22;64089;51.478;5.692;2023-05-18T07:19:49;10.40;99.90
42833;DHT22;64089;51.478;5.692;2023-05-18T07:22:15;10.50;99.90
42833;DHT22;64089;51.478;5.692;2023-05-18T07:24:41;10.50;99.90
42833;DHT22;64089;51.478;5.692;2023-05-18T07:27:07;10.50;99.90
42833;DHT22;64089;51.478;5.692;2023-05-18T07:29:33;10.60;99.90
42833;DHT22;64089;51.478;5.692;2023-05-18T07:31:59;10.70;99.90
42833;DHT22;64089;51.478;5.692;2023-05-18T07:34:25;10.80;99.90
42833;DHT22;64089;51.478;5.692;2023-05-18T07:36:52;10.90;99.90
42833;DHT22;64089;51.478;5.692;2023-05-18T07:39:17;11.00;99.90
42833;DHT22;64089;51.478;5.692;2023-05-18T07:41:47;11.00;99.90
42833;DHT22;64089;51.478;5.692;2023-05-18T07:44:18;11.00;99.90
42833;DHT22;64089;51.478;5.692;2023-05-18T07:46:44;11.00;99.90
42833;DHT22;64089;51.478;5.692;2023-05-18T07:49:09;11.20;99.90
42833;DHT22;64089;51.478;5.692;2023-05-18T07:51:35;11.20;99.90
42833;DHT22;64089;51.478;5.692;2023-05-18T07:54:01;11.10;99.90
42833;DHT22;64089;51.478;5.692;2023-05-18T07:56:27;11.20;99.90
42833;DHT22;64089;51.478;5.692;2023-05-18T07:58:52;11.20;99.90
42833;DHT22;64089;51.478;5.692;2023-05-18T08:01:18;11.10;99.90
42833;DHT22;64089;51.478;5.692;2023-05-18T08:03:43;11.10;99.90
42833;DHT22;64089;51.478;5.692;2023-05-18T08:06:09;11.20;99.90
42833;DHT22;64089;51.478;5.692;2023-05-18T08:08:34;11.20;99.90
42833;DHT22;64089;51.478;5.692;2023-05-18T08:11:02;11.40;99.90
42833;DHT22;64089;51.478;5.692;2023-05-18T08:13:28;11.50;99.90
42833;DHT22;64089;51.478;5.692;2023-05-18T08:15:54;11.60;99.90
42833;DHT22;64089;51.478;5.692;2023-05-18T08:18:19;11.60;99.90
42833;DHT22;64089;51.478;5.692;2023-05-18T08:20:45;11.70;99.90
42833;DHT22;64089;51.478;5.692;2023-05-18T08:23:10;11.80;99.90
42833;DHT22;64089;51.478;5.692;2023-05-18T08:25:36;11.80;99.90
42833;DHT22;64089;51.478;5.692;2023-05-18T08:28:02;11.90;99.90
42833;DHT22;64089;51.478;5.692;2023-05-18T08:30:27;12.00;99.90
42833;DHT22;64089;51.478;5.692;2023-05-18T08:32:53;12.00;99.90
42833;DHT22;64089;51.478;5.692;2023-05-18T08:35:19;12.10;99.90
42833;DHT22;64089;51.478;5.692;2023-05-18T08:37:45;12.30;99.90
42833;DHT22;64089;51.478;5.692;2023-05-18T08:40:11;12.30;99.90
42833;DHT22;64089;51.478;5.692;2023-05-18T08:43:02;12.20;99.90
42833;DHT22;64089;51.478;5.692;2023-05-18T08:48:32;12.30;99.90
42833;DHT22;64089;51.478;5.692;2023-05-18T08:51:01;12.30;99.90
42833;DHT22;64089;51.478;5.692;2023-05-18T08:53:29;12.40;99.90
42833;DHT22;64089;51.478;5.692;2023-05-18T08:55:57;12.40;99.90
42833;DHT22;64089;51.478;5.692;2023-05-18T08:58:29;12.30;99.90
42833;DHT22;64089;51.478;5.692;2023-05-18T09:00:57;12.60;99.90
42833;DHT22;64089;51.478;5.692;2023-05-18T09:03:23;12.60;99.50
42833;DHT22;64089;51.478;5.692;2023-05-18T09:05:51;12.30;99.80
42833;DHT22;64089;51.478;5.692;2023-05-18T09:08:17;12.50;99.90
42833;DHT22;64089;51.478;5.692;2023-05-18T09:10:44;12.80;99.80
42833;DHT22;64089;51.478;5.692;2023-05-18T09:13:11;13.00;99.40
42833;DHT22;64089;51.478;5.692;2023-05-18T09:15:37;13.10;97.50
42833;DHT22;64089;51.478;5.692;2023-05-18T09:18:02;13.30;98.00
42833;DHT22;64089;51.478;5.692;2023-05-18T09:20:28;13.00;97.50
42833;DHT22;64089;51.478;5.692;2023-05-18T09:22:54;12.90;97.90
42833;DHT22;64089;51.478;5.692;2023-05-18T09:25:20;13.20;98.70
42833;DHT22;64089;51.478;5.692;2023-05-18T09:27:48;13.90;98.00
42833;DHT22;64089;51.478;5.692;2023-05-18T09:30:16;14.20;96.90
42833;DHT22;64089;51.478;5.692;2023-05-18T09:32:45;14.40;97.30
42833;DHT22;64089;51.478;5.692;2023-05-18T09:35:11;14.50;97.70
42833;DHT22;64089;51.478;5.692;2023-05-18T09:37:40;14.30;97.10
42833;DHT22;64089;51.478;5.692;2023-05-18T09:40:07;14.00;96.50
42833;DHT22;64089;51.478;5.692;2023-05-18T09:42:40;13.70;96.90
42833;DHT22;64089;51.478;5.692;2023-05-18T09:45:20;14.00;97.50
42833;DHT22;64089;51.478;5.692;2023-05-18T09:47:49;13.50;97.20
42833;DHT22;64089;51.478;5.692;2023-05-18T09:50:22;13.40;97.70
42833;DHT22;64089;51.478;5.692;2023-05-18T09:52:48;13.40;97.80
42833;DHT22;64089;51.478;5.692;2023-05-18T09:55:18;13.50;97.70
42833;DHT22;64089;51.478;5.692;2023-05-18T09:57:46;13.40;97.40
42833;DHT22;64089;51.478;5.692;2023-05-18T10:00:13;13.10;96.80
42833;DHT22;64089;51.478;5.692;2023-05-18T10:02:41;13.00;97.80
42833;DHT22;64089;51.478;5.692;2023-05-18T10:05:20;12.90;97.90
42833;DHT22;64089;51.478;5.692;2023-05-18T10:07:46;13.10;97.40
42833;DHT22;64089;51.478;5.692;2023-05-18T10:10:16;13.10;98.10
42833;DHT22;64089;51.478;5.692;2023-05-18T10:12:43;13.20;98.30
42833;DHT22;64089;51.478;5.692;2023-05-18T10:15:09;13.30;97.90
42833;DHT22;64089;51.478;5.692;2023-05-18T10:17:36;13.40;97.70
42833;DHT22;64089;51.478;5.692;2023-05-18T10:20:05;13.40;97.30
42833;DHT22;64089;51.478;5.692;2023-05-18T10:22:34;13.20;97.40
42833;DHT22;64089;51.478;5.692;2023-05-18T10:25:03;13.20;98.10
42833;DHT22;64089;51.478;5.692;2023-05-18T10:27:29;13.50;97.90
42833;DHT22;64089;51.478;5.692;2023-05-18T10:29:58;13.40;97.40
42833;DHT22;64089;51.478;5.692;2023-05-18T10:32:25;13.40;97.00
42833;DHT22;64089;51.478;5.692;2023-05-18T10:34:55;13.60;97.50
42833;DHT22;64089;51.478;5.692;2023-05-18T10:37:22;13.80;97.30
42833;DHT22;64089;51.478;5.692;2023-05-18T10:39:50;13.90;97.00
42833;DHT22;64089;51.478;5.692;2023-05-18T10:42:18;14.00;96.70
42833;DHT22;64089;51.478;5.692;2023-05-18T10:44:44;14.00;96.50
42833;DHT22;64089;51.478;5.692;2023-05-18T10:47:13;14.10;97.10
42833;DHT22;64089;51.478;5.692;2023-05-18T10:49:42;14.10;96.30
42833;DHT22;64089;51.478;5.692;2023-05-18T10:52:08;14.40;96.80
42833;DHT22;64089;51.478;5.692;2023-05-18T10:54:35;14.50;96.10
42833;DHT22;64089;51.478;5.692;2023-05-18T10:57:01;14.40;96.30
42833;DHT22;64089;51.478;5.692;2023-05-18T10:59:27;14.50;96.10
42833;DHT22;64089;51.478;5.692;2023-05-18T11:01:54;14.50;95.70
42833;DHT22;64089;51.478;5.692;2023-05-18T11:04:38;14.60;95.70
42833;DHT22;64089;51.478;5.692;2023-05-18T11:07:05;14.90;96.60
42833;DHT22;64089;51.478;5.692;2023-05-18T11:09:35;14.90;95.00
42833;DHT22;64089;51.478;5.692;2023-05-18T11:12:00;14.80;95.10
42833;DHT22;64089;51.478;5.692;2023-05-18T11:14:30;14.70;94.80
42833;DHT22;64089;51.478;5.692;2023-05-18T11:20:15;14.90;95.00
42833;DHT22;64089;51.478;5.692;2023-05-18T11:28:02;15.30;96.00
42833;DHT22;64089;51.478;5.692;2023-05-18T11:33:09;15.00;95.40
42833;DHT22;64089;51.478;5.692;2023-05-18T11:36:05;15.00;95.40
42833;DHT22;64089;51.478;5.692;2023-05-18T11:41:34;14.90;94.60
42833;DHT22;64089;51.478;5.692;2023-05-18T11:46:31;15.00;95.10
42833;DHT22;64089;51.478;5.692;2023-05-18T11:49:02;14.90;94.40
42833;DHT22;64089;51.478;5.692;2023-05-18T11:51:30;15.00;94.70
42833;DHT22;64089;51.478;5.692;2023-05-18T11:53:57;15.00;94.10
42833;DHT22;64089;51.478;5.692;2023-05-18T11:56:24;15.10;94.40
42833;DHT22;64089;51.478;5.692;2023-05-18T11:59:09;15.40;94.50
42833;DHT22;64089;51.478;5.692;2023-05-18T12:01:37;15.50;94.30
42833;DHT22;64089;51.478;5.692;2023-05-18T12:04:03;15.40;93.30
42833;DHT22;64089;51.478;5.692;2023-05-18T12:06:29;15.60;93.90
42833;DHT22;64089;51.478;5.692;2023-05-18T12:08:55;15.70;93.00
42833;DHT22;64089;51.478;5.692;2023-05-18T12:11:21;15.70;92.90
42833;DHT22;64089;51.478;5.692;2023-05-18T12:13:48;16.00;93.70
42833;DHT22;64089;51.478;5.692;2023-05-18T12:16:16;16.00;92.90
42833;DHT22;64089;51.478;5.692;2023-05-18T12:18:48;16.00;92.50
42833;DHT22;64089;51.478;5.692;2023-05-18T12:21:14;16.10;92.20
42833;DHT22;64089;51.478;5.692;2023-05-18T12:23:41;15.90;92.80
42833;DHT22;64089;51.478;5.692;2023-05-18T12:26:07;16.00;92.90
42833;DHT22;64089;51.478;5.692;2023-05-18T12:28:32;16.30;93.10
42833;DHT22;64089;51.478;5.692;2023-05-18T12:30:58;16.50;93.00
42833;DHT22;64089;51.478;5.692;2023-05-18T12:33:24;16.70;92.10
42833;DHT22;64089;51.478;5.692;2023-05-18T12:35:50;16.70;92.70
42833;DHT22;64089;51.478;5.692;2023-05-18T12:38:18;16.60;92.30
42833;DHT22;64089;51.478;5.692;2023-05-18T12:40:44;17.10;93.30
42833;DHT22;64089;51.478;5.692;2023-05-18T12:43:13;17.00;92.10
42833;DHT22;64089;51.478;5.692;2023-05-18T12:45:39;16.60;92.50
42833;DHT22;64089;51.478;5.692;2023-05-18T12:48:10;16.30;92.00
42833;DHT22;64089;51.478;5.692;2023-05-18T12:50:48;16.20;91.80
42833;DHT22;64089;51.478;5.692;2023-05-18T12:53:14;15.90;91.80
42833;DHT22;64089;51.478;5.692;2023-05-18T12:55:42;16.00;92.10
42833;DHT22;64089;51.478;5.692;2023-05-18T12:58:14;16.20;92.30
42833;DHT22;64089;51.478;5.692;2023-05-18T13:00:45;16.40;92.20
42833;DHT22;64089;51.478;5.692;2023-05-18T13:03:18;16.50;92.20
42833;DHT22;64089;51.478;5.692;2023-05-18T13:06:06;16.70;92.30
42833;DHT22;64089;51.478;5.692;2023-05-18T13:08:34;16.90;92.30
42833;DHT22;64089;51.478;5.692;2023-05-18T13:11:09;16.90;91.50
42833;DHT22;64089;51.478;5.692;2023-05-18T13:13:36;16.90;91.20
42833;DHT22;64089;51.478;5.692;2023-05-18T13:16:02;17.20;91.60
42833;DHT22;64089;51.478;5.692;2023-05-18T13:18:28;17.40;91.70
42833;DHT22;64089;51.478;5.692;2023-05-18T13:20:55;17.40;92.20
42833;DHT22;64089;51.478;5.692;2023-05-18T13:25:47;17.20;91.10
42833;DHT22;64089;51.478;5.692;2023-05-18T13:28:14;17.30;91.10
42833;DHT22;64089;51.478;5.692;2023-05-18T13:30:42;17.50;91.30
42833;DHT22;64089;51.478;5.692;2023-05-18T13:33:08;17.30;90.40
42833;DHT22;64089;51.478;5.692;2023-05-18T13:35:35;17.10;90.40
42833;DHT22;64089;51.478;5.692;2023-05-18T13:38:01;17.20;91.40
42833;DHT22;64089;51.478;5.692;2023-05-18T13:40:27;17.40;90.50
42833;DHT22;64089;51.478;5.692;2023-05-18T13:42:53;17.60;90.90
42833;DHT22;64089;51.478;5.692;2023-05-18T13:45:19;17.70;90.80
42833;DHT22;64089;51.478;5.692;2023-05-18T13:47:48;17.70;91.10
42833;DHT22;64089;51.478;5.692;2023-05-18T13:50:18;17.50;90.10
42833;DHT22;64089;51.478;5.692;2023-05-18T13:52:45;17.60;90.70
42833;DHT22;64089;51.478;5.692;2023-05-18T13:55:11;17.60;90.40
42833;DHT22;64089;51.478;5.692;2023-05-18T13:57:37;17.60;88.60
42833;DHT22;64089;51.478;5.692;2023-05-18T14:00:03;17.50;88.00
42833;DHT22;64089;51.478;5.692;2023-05-18T14:02:35;17.30;88.30
42833;DHT22;64089;51.478;5.692;2023-05-18T14:05:01;17.50;89.20
42833;DHT22;64089;51.478;5.692;2023-05-18T14:07:28;17.40;88.50
42833;DHT22;64089;51.478;5.692;2023-05-18T14:09:54;17.40;89.20
42833;DHT22;64089;51.478;5.692;2023-05-18T14:12:19;17.40;90.20
42833;DHT22;64089;51.478;5.692;2023-05-18T14:14:45;17.40;90.10
42833;DHT22;64089;51.478;5.692;2023-05-18T14:17:11;17.60;91.10
42833;DHT22;64089;51.478;5.692;2023-05-18T14:19:38;17.40;90.10
42833;DHT22;64089;51.478;5.692;2023-05-18T14:22:04;17.50;91.40
42833;DHT22;64089;51.478;5.692;2023-05-18T14:24:29;17.60;90.40
42833;DHT22;64089;51.478;5.692;2023-05-18T14:26:55;17.30;90.30
42833;DHT22;64089;51.478;5.692;2023-05-18T14:29:21;17.00;90.70
42833;DHT22;64089;51.478;5.692;2023-05-18T14:31:46;16.90;90.50
42833;DHT22;64089;51.478;5.692;2023-05-18T14:34:12;17.20;91.00
42833;DHT22;64089;51.478;5.692;2023-05-18T14:36:38;17.50;90.70
42833;DHT22;64089;51.478;5.692;2023-05-18T14:39:03;17.40;90.40
42833;DHT22;64089;51.478;5.692;2023-05-18T14:41:29;17.50;90.90
42833;DHT22;64089;51.478;5.692;2023-05-18T14:43:55;17.70;91.00
42833;DHT22;64089;51.478;5.692;2023-05-18T14:46:20;17.40;90.50
42833;DHT22;64089;51.478;5.692;2023-05-18T14:48:46;17.30;90.20
42833;DHT22;64089;51.478;5.692;2023-05-18T14:51:12;17.10;90.00
42833;DHT22;64089;51.478;5.692;2023-05-18T14:53:38;16.90;90.50
42833;DHT22;64089;51.478;5.692;2023-05-18T14:56:04;16.90;90.60
42833;DHT22;64089;51.478;5.692;2023-05-18T14:58:32;16.90;90.40
42833;DHT22;64089;51.478;5.692;2023-05-18T15:00:58;16.80;89.40
42833;DHT22;64089;51.478;5.692;2023-05-18T15:03:24;16.60;90.20
42833;DHT22;64089;51.478;5.692;2023-05-18T15:05:49;16.90;90.40
42833;DHT22;64089;51.478;5.692;2023-05-18T15:08:18;17.00;90.10
42833;DHT22;64089;51.478;5.692;2023-05-18T15:10:43;17.00;90.20
42833;DHT22;64089;51.478;5.692;2023-05-18T15:13:09;17.40;90.80
42833;DHT22;64089;51.478;5.692;2023-05-18T15:15:35;17.40;89.70
42833;DHT22;64089;51.478;5.692;2023-05-18T15:18:00;17.30;89.20
42833;DHT22;64089;51.478;5.692;2023-05-18T15:20:26;17.00;89.80
42833;DHT22;64089;51.478;5.692;2023-05-18T15:22:52;17.10;89.30
42833;DHT22;64089;51.478;5.692;2023-05-18T15:25:17;17.00;89.50
42833;DHT22;64089;51.478;5.692;2023-05-18T15:27:43;17.10;90.00
42833;DHT22;64089;51.478;5.692;2023-05-18T15:30:09;17.10;90.10
42833;DHT22;64089;51.478;5.692;2023-05-18T15:32:38;17.10;88.80
42833;DHT22;64089;51.478;5.692;2023-05-18T15:35:04;16.90;89.20
42833;DHT22;64089;51.478;5.692;2023-05-18T15:37:31;17.10;90.00
42833;DHT22;64089;51.478;5.692;2023-05-18T15:39:56;17.30;90.10
42833;DHT22;64089;51.478;5.692;2023-05-18T15:42:23;17.40;90.40
42833;DHT22;64089;51.478;5.692;2023-05-18T15:44:48;17.40;88.50
42833;DHT22;64089;51.478;5.692;2023-05-18T15:47:14;17.50;89.90
42833;DHT22;64089;51.478;5.692;2023-05-18T15:49:41;17.50;88.80
42833;DHT22;64089;51.478;5.692;2023-05-18T15:52:07;17.60;89.60
42833;DHT22;64089;51.478;5.692;2023-05-18T15:54:33;17.70;88.10
42833;DHT22;64089;51.478;5.692;2023-05-18T15:56:59;17.80;88.60
42833;DHT22;64089;51.478;5.692;2023-05-18T15:59:25;18.00;88.10
42833;DHT22;64089;51.478;5.692;2023-05-18T16:01:51;18.10;89.00
42833;DHT22;64089;51.478;5.692;2023-05-18T16:04:17;18.10;89.50
42833;DHT22;64089;51.478;5.692;2023-05-18T16:06:42;18.10;88.60
42833;DHT22;64089;51.478;5.692;2023-05-18T16:09:08;17.90;88.10